Time;durP1;ratioP1;P1;durP2;ratioP2;P2;SDS_P1;SDS_P2;PMS_P1;PMS_P2;Temp;Humidity;BMP_temperature;BMP_pressure;BME280_temperature;BME280_humidity;BME280_pressure;Samples;Min_cycle;Max_cycle;Signal;HPM_P1;HPM_P2
2021/12/01 05:11:24;;;;;;;0.77;0.77;;;3.80;99.90;;;;;;4860811;29;20231;-71
2021/12/01 05:13:51;;;;;;;0.60;0.60;;;3.80;99.90;;;;;;4862117;29;20299;-71
2021/12/01 05:16:18;;;;;;;0.60;0.60;;;3.90;99.90;;;;;;4862162;29;20238;-71
2021/12/01 05:18:45;;;;;;;0.68;0.60;;;4.00;99.90;;;;;;4862282;29;20213;-72
2021/12/01 05:21:12;;;;;;;0.60;0.60;;;4.10;99.90;;;;;;4862795;29;20207;-71
2021/12/01 05:23:39;;;;;;;0.50;0.50;;;4.10;99.90;;;;;;4861882;29;20290;-70
2021/12/01 05:26:07;;;;;;;0.50;0.50;;;4.10;99.90;;;;;;4861814;29;20264;-70
2021/12/01 05:28:35;;;;;;;0.55;0.55;;;4.10;99.90;;;;;;4862079;29;20238;-70
2021/12/01 05:31:02;;;;;;;0.50;0.50;;;4.10;99.90;;;;;;4861951;29;20314;-70
2021/12/01 05:33:29;;;;;;;0.50;0.50;;;4.10;99.90;;;;;;4861872;29;20227;-71
2021/12/01 05:35:56;;;;;;;0.50;0.50;;;4.00;99.90;;;;;;4861930;29;20294;-70
2021/12/01 05:38:23;;;;;;;0.50;0.50;;;4.00;99.90;;;;;;4861855;29;20634;-69
2021/12/01 05:40:50;;;;;;;0.55;0.55;;;4.00;99.90;;;;;;4861692;29;20776;-70
2021/12/01 05:43:18;;;;;;;1.00;0.70;;;4.00;99.90;;;;;;4862368;29;20294;-69
2021/12/01 05:45:47;;;;;;;0.50;0.50;;;4.00;99.90;;;;;;4861582;29;20751;-69
2021/12/01 05:48:15;;;;;;;0.65;0.50;;;4.00;99.90;;;;;;4861652;29;20690;-68
2021/12/01 05:50:42;;;;;;;0.50;0.50;;;4.00;99.90;;;;;;4861662;29;20322;-68
2021/12/01 05:53:09;;;;;;;0.50;0.50;;;4.00;99.90;;;;;;4861650;29;20230;-68
2021/12/01 05:55:36;;;;;;;1.38;0.60;;;4.00;99.90;;;;;;4861716;29;20309;-68
2021/12/01 05:58:03;;;;;;;0.50;0.50;;;4.10;99.90;;;;;;4861638;29;20211;-68
2021/12/01 06:00:30;;;;;;;0.40;0.40;;;4.20;99.90;;;;;;4861486;29;20237;-68
2021/12/01 06:02:59;;;;;;;0.50;0.50;;;4.20;99.90;;;;;;4861482;29;20235;-68
2021/12/01 06:05:27;;;;;;;0.40;0.40;;;4.20;99.90;;;;;;4861499;29;20233;-68
2021/12/01 06:07:54;;;;;;;0.50;0.50;;;4.20;99.90;;;;;;4860519;29;20214;-68
2021/12/01 06:10:21;;;;;;;0.50;0.50;;;4.10;99.90;;;;;;4860763;29;20235;-68
2021/12/01 06:12:48;;;;;;;0.40;0.40;;;4.10;99.90;;;;;;4861444;29;20199;-68
2021/12/01 06:15:18;;;;;;;0.50;0.50;;;4.10;99.90;;;;;;4861306;29;20322;-68
2021/12/01 11:03:08;;;;;;;2.13;2.03;;;5.70;99.90;;;;;;4863963;29;20223;-66
2021/12/01 11:05:37;;;;;;;1.77;1.67;;;5.80;99.90;;;;;;4864524;29;20276;-66
2021/12/01 11:08:12;;;;;;;2.40;2.00;;;5.90;99.90;;;;;;4864420;29;20731;-66
2021/12/01 11:10:39;;;;;;;1.95;1.83;;;6.00;99.90;;;;;;4864442;29;20297;-66
2021/12/01 11:13:07;;;;;;;2.35;1.80;;;6.00;99.90;;;;;;4864551;29;20218;-66
2021/12/01 11:15:37;;;;;;;2.22;2.03;;;6.10;99.90;;;;;;4864843;29;20223;-66
2021/12/01 11:18:05;;;;;;;1.60;1.50;;;6.10;99.90;;;;;;4864877;29;20702;-67
2021/12/01 11:20:41;;;;;;;1.60;1.60;;;6.10;99.90;;;;;;4870693;29;20215;-66
2021/12/01 11:23:29;;;;;;;1.60;1.60;;;6.10;99.90;;;;;;4869576;29;20203;-66
2021/12/01 11:26:00;;;;;;;1.75;1.60;;;6.10;99.90;;;;;;4870408;29;20235;-66
2021/12/01 11:28:30;;;;;;;1.60;1.52;;;6.20;99.90;;;;;;4871195;29;20192;-66
2021/12/01 11:31:00;;;;;;;1.50;1.40;;;6.20;99.90;;;;;;4868705;29;20310;-66
2021/12/01 11:33:28;;;;;;;1.50;1.40;;;6.20;99.90;;;;;;4865299;29;20218;-66
2021/12/01 11:36:00;;;;;;;1.27;1.25;;;6.20;99.90;;;;;;4864685;29;20211;-66
2021/12/01 11:38:27;;;;;;;1.40;1.35;;;6.20;99.90;;;;;;4864864;29;20195;-66
2021/12/01 11:40:56;;;;;;;1.50;1.42;;;6.10;99.90;;;;;;4865579;29;20211;-66
2021/12/01 11:43:27;;;;;;;1.20;1.20;;;6.20;99.90;;;;;;4868871;29;20212;-67
2021/12/01 11:45:55;;;;;;;1.15;1.15;;;6.20;99.90;;;;;;4869455;29;20524;-66
2021/12/01 11:48:25;;;;;;;1.45;1.35;;;6.30;99.90;;;;;;4869477;29;20246;-66
2021/12/01 11:51:05;;;;;;;1.23;1.20;;;6.30;99.90;;;;;;4869285;29;20224;-66
2021/12/01 11:53:36;;;;;;;1.50;1.50;;;6.40;99.90;;;;;;4869112;29;20196;-65
2021/12/01 11:56:05;;;;;;;1.10;1.10;;;6.40;99.90;;;;;;4869603;29;20192;-67
2021/12/01 11:59:01;;;;;;;1.05;1.05;;;6.40;99.90;;;;;;4869043;29;20200;-67
2021/12/01 12:01:42;;;;;;;1.40;1.30;;;6.50;99.90;;;;;;4869540;29;20249;-67
2021/12/01 12:04:46;;;;;;;1.25;1.23;;;6.40;99.90;;;;;;4866609;29;20226;-67
2021/12/01 12:07:17;;;;;;;1.23;1.15;;;6.40;99.90;;;;;;4862229;29;20187;-67
2021/12/01 12:10:05;;;;;;;1.05;1.05;;;6.50;99.90;;;;;;4863670;29;20188;-67
2021/12/01 12:13:03;;;;;;;1.00;1.00;;;6.50;99.90;;;;;;4863550;29;20231;-67
2021/12/01 12:15:47;;;;;;;0.98;0.98;;;6.50;99.90;;;;;;4863442;29;20219;-67
2021/12/01 12:18:35;;;;;;;1.35;1.17;;;6.60;99.90;;;;;;4863503;29;20196;-67
2021/12/01 12:21:15;;;;;;;1.20;1.10;;;6.60;99.90;;;;;;4863020;29;20243;-67
2021/12/01 12:23:48;;;;;;;1.50;1.40;;;6.70;99.90;;;;;;4863706;29;20203;-67
2021/12/01 12:26:32;;;;;;;1.38;1.27;;;6.60;99.90;;;;;;4863385;29;20291;-67
2021/12/01 12:29:02;;;;;;;1.10;1.10;;;6.60;99.90;;;;;;4863319;29;20194;-67
2021/12/01 12:31:31;;;;;;;1.40;1.10;;;6.60;99.90;;;;;;4863088;29;20238;-67
2021/12/01 12:34:01;;;;;;;1.08;1.08;;;6.60;99.90;;;;;;4862863;29;20612;-68
2021/12/01 12:36:44;;;;;;;1.10;1.10;;;6.50;99.90;;;;;;4863715;29;20195;-67
2021/12/01 12:39:14;;;;;;;0.98;0.98;;;6.60;99.90;;;;;;4862838;29;20666;-67
2021/12/01 12:42:10;;;;;;;1.17;0.95;;;6.60;99.90;;;;;;4862936;29;20223;-67
2021/12/01 12:44:40;;;;;;;1.05;1.05;;;6.60;99.90;;;;;;4862734;29;20660;-67
2021/12/01 12:47:12;;;;;;;0.80;0.80;;;6.60;99.90;;;;;;4862591;29;20660;-67
2021/12/01 12:49:40;;;;;;;0.90;0.90;;;6.70;99.90;;;;;;4862635;29;20560;-68
2021/12/01 12:52:30;;;;;;;0.75;0.70;;;6.70;99.90;;;;;;4862764;29;20228;-68
2021/12/01 12:55:00;;;;;;;0.80;0.80;;;6.70;99.90;;;;;;4862967;29;20237;-68
2021/12/01 12:57:49;;;;;;;2.47;0.82;;;6.70;99.90;;;;;;4862605;29;20191;-68
2021/12/01 13:00:19;;;;;;;0.95;0.95;;;6.70;99.90;;;;;;4862645;29;20561;-67
2021/12/01 13:02:46;;;;;;;0.70;0.70;;;6.70;99.90;;;;;;4862766;29;20239;-67
2021/12/01 13:05:13;;;;;;;0.90;0.85;;;6.70;99.90;;;;;;4863119;29;20207;-68
2021/12/01 13:07:46;;;;;;;1.00;1.00;;;6.70;99.90;;;;;;4862545;29;20218;-67
2021/12/01 13:10:23;;;;;;;0.93;0.93;;;6.80;99.90;;;;;;4862600;29;20188;-67
2021/12/01 13:12:54;;;;;;;0.73;0.73;;;6.80;99.90;;;;;;4862594;29;20318;-68
2021/12/01 13:15:27;;;;;;;0.90;0.90;;;6.80;99.90;;;;;;4862394;29;20314;-68
2021/12/01 13:17:56;;;;;;;0.90;0.90;;;6.80;99.90;;;;;;4862406;29;20202;-68
2021/12/01 13:20:29;;;;;;;1.60;1.00;;;6.80;99.90;;;;;;4862460;29;20288;-68
2021/12/01 13:23:14;;;;;;;1.05;1.00;;;6.80;99.90;;;;;;4862067;29;20571;-68
2021/12/01 13:25:53;;;;;;;0.70;0.70;;;6.90;99.90;;;;;;4862683;29;20278;-68
2021/12/01 13:28:29;;;;;;;0.90;0.90;;;6.80;99.90;;;;;;4861980;29;20206;-68
2021/12/01 13:30:58;;;;;;;0.90;0.90;;;6.80;99.90;;;;;;4862703;29;20240;-68
2021/12/01 13:33:25;;;;;;;0.80;0.80;;;6.80;99.90;;;;;;4862325;29;20216;-68
2021/12/01 13:35:52;;;;;;;1.10;1.10;;;6.80;99.90;;;;;;4861965;29;20241;-68
2021/12/01 13:38:35;;;;;;;0.90;0.90;;;6.70;99.90;;;;;;4862041;29;20213;-68
2021/12/01 13:41:12;;;;;;;0.98;0.98;;;6.80;99.90;;;;;;4862382;29;20270;-68
2021/12/01 13:43:41;;;;;;;0.88;0.88;;;6.70;99.90;;;;;;4862313;29;20199;-68
2021/12/01 13:46:08;;;;;;;0.80;0.80;;;6.60;99.90;;;;;;4861985;29;20680;-67
2021/12/01 13:48:35;;;;;;;0.98;0.98;;;6.60;99.90;;;;;;4862324;29;20661;-68
2021/12/01 13:51:07;;;;;;;0.80;0.80;;;6.60;99.90;;;;;;4861841;29;20239;-68
2021/12/01 13:53:34;;;;;;;0.90;0.90;;;6.60;99.90;;;;;;4862080;29;20217;-68
2021/12/01 13:56:10;;;;;;;0.65;0.65;;;6.60;99.90;;;;;;4862070;29;20317;-67
2021/12/01 13:58:37;;;;;;;0.95;0.95;;;6.60;99.90;;;;;;4861962;29;20286;-67
2021/12/01 14:01:06;;;;;;;0.80;0.80;;;6.60;99.90;;;;;;4861673;29;20258;-67
2021/12/01 14:03:34;;;;;;;0.70;0.70;;;6.60;99.90;;;;;;4861224;29;20306;-68
2021/12/01 14:06:08;;;;;;;0.80;0.80;;;6.50;99.90;;;;;;4861550;29;20210;-67
2021/12/01 14:08:39;;;;;;;0.90;0.70;;;6.50;99.90;;;;;;4861641;29;20594;-67
2021/12/01 14:11:28;;;;;;;1.20;1.10;;;6.50;99.90;;;;;;4861454;29;20283;-67
2021/12/01 14:13:56;;;;;;;0.80;0.80;;;6.40;99.90;;;;;;4861186;29;20562;-67
2021/12/01 14:16:25;;;;;;;0.85;0.85;;;6.40;99.90;;;;;;4861343;29;20235;-67
2021/12/01 14:18:53;;;;;;;0.70;0.70;;;6.40;99.90;;;;;;4861056;29;20698;-67
2021/12/01 14:21:21;;;;;;;1.27;0.93;;;6.30;99.90;;;;;;4861235;29;20231;-67
2021/12/01 14:23:49;;;;;;;0.80;0.80;;;6.30;99.90;;;;;;4861296;29;20203;-67
2021/12/01 14:26:17;;;;;;;0.80;0.80;;;6.30;99.90;;;;;;4861385;29;20207;-67
2021/12/01 14:28:56;;;;;;;0.70;0.70;;;6.30;99.90;;;;;;4861087;29;20545;-67
2021/12/01 14:31:23;;;;;;;1.02;1.02;;;6.30;99.90;;;;;;4860669;29;20596;-66
2021/12/01 14:34:08;;;;;;;0.90;0.90;;;6.20;99.90;;;;;;4861123;29;20302;-66
2021/12/01 14:36:37;;;;;;;0.77;0.77;;;6.20;99.90;;;;;;4861644;29;20218;-66
2021/12/01 14:39:06;;;;;;;0.90;0.60;;;6.20;99.90;;;;;;4860968;29;20747;-66
2021/12/01 14:41:34;;;;;;;0.50;0.50;;;6.20;99.90;;;;;;4860795;29;20227;-66
2021/12/01 14:44:07;;;;;;;0.68;0.68;;;6.20;99.90;;;;;;4860804;29;20377;-66
2021/12/01 14:46:36;;;;;;;0.63;0.63;;;6.20;99.90;;;;;;4861145;29;20194;-66
2021/12/01 15:33:07;;;;;;;0.93;0.93;;;6.10;99.90;;;;;;4974815;23;20241;-68
2021/12/01 15:35:34;;;;;;;0.80;0.80;;;6.10;99.90;;;;;;4916740;29;20210;-68
2021/12/01 15:38:01;;;;;;;0.80;0.80;;;6.10;99.90;;;;;;4916628;29;20284;-68
2021/12/01 15:40:34;;;;;;;0.88;0.88;;;6.10;99.90;;;;;;4916686;29;20280;-67
2021/12/01 15:43:00;;;;;;;0.60;0.60;;;6.10;99.90;;;;;;4920018;29;20319;-67
2021/12/01 15:45:28;;;;;;;0.82;0.73;;;6.00;99.90;;;;;;4920424;29;20281;-67
2021/12/01 15:47:55;;;;;;;0.63;0.63;;;6.00;99.90;;;;;;4920091;29;20297;-67
2021/12/01 15:50:25;;;;;;;0.80;0.80;;;6.00;99.90;;;;;;4920065;29;20300;-67
2021/12/01 15:52:54;;;;;;;0.70;0.70;;;6.00;99.90;;;;;;4919985;29;20229;-67
2021/12/01 15:55:21;;;;;;;0.60;0.60;;;6.00;99.90;;;;;;4919845;29;20221;-67
2021/12/01 15:57:50;;;;;;;0.50;0.50;;;6.00;99.90;;;;;;4919890;29;20292;-67
2021/12/01 16:00:19;;;;;;;0.60;0.60;;;6.00;99.90;;;;;;4919786;29;20209;-67
2021/12/01 16:02:46;;;;;;;0.63;0.63;;;6.00;99.90;;;;;;4919482;29;20723;-67
2021/12/01 16:05:15;;;;;;;0.60;0.60;;;6.00;99.90;;;;;;4920226;29;20619;-67
2021/12/01 16:07:44;;;;;;;0.50;0.50;;;6.00;99.90;;;;;;4919728;29;20209;-67
2021/12/01 16:10:11;;;;;;;0.45;0.45;;;6.00;99.90;;;;;;4919495;29;20209;-67
2021/12/01 16:12:38;;;;;;;0.68;0.68;;;6.00;99.90;;;;;;4919362;29;20312;-68
2021/12/01 16:15:07;;;;;;;0.45;0.45;;;5.70;99.90;;;;;;4919236;29;20312;-68
2021/12/01 16:17:37;;;;;;;0.63;0.63;;;6.00;99.90;;;;;;4919719;29;20209;-68
2021/12/01 16:20:06;;;;;;;1.20;0.55;;;6.00;99.90;;;;;;4919409;29;20194;-68
2021/12/01 16:22:33;;;;;;;0.40;0.40;;;6.00;99.90;;;;;;4919296;29;20264;-69
2021/12/01 16:25:01;;;;;;;0.43;0.43;;;6.00;99.90;;;;;;4919583;29;20221;-69
2021/12/01 16:27:28;;;;;;;0.40;0.40;;;6.00;99.90;;;;;;4920238;29;20281;-69
2021/12/01 16:30:07;;;;;;;0.50;0.50;;;6.00;99.90;;;;;;4919216;29;20769;-69
2021/12/01 16:32:34;;;;;;;0.50;0.50;;;6.00;99.90;;;;;;4919729;29;20320;-69
2021/12/01 16:35:02;;;;;;;0.60;0.60;;;6.00;99.90;;;;;;4919698;29;20719;-69
2021/12/01 16:37:29;;;;;;;0.60;0.60;;;6.00;99.90;;;;;;4919790;29;20221;-69
2021/12/01 16:39:56;;;;;;;0.65;0.65;;;5.90;99.90;;;;;;4919103;29;20688;-69
2021/12/01 16:42:24;;;;;;;0.50;0.50;;;6.00;99.90;;;;;;4919129;29;20261;-68
2021/12/01 16:44:51;;;;;;;0.40;0.40;;;6.00;99.90;;;;;;4918749;29;20643;-68
2021/12/01 16:47:18;;;;;;;0.60;0.60;;;6.00;99.90;;;;;;4918973;29;20206;-68
2021/12/01 16:49:46;;;;;;;0.63;0.63;;;5.90;99.90;;;;;;4919119;29;20221;-69
2021/12/01 16:52:13;;;;;;;0.50;0.50;;;5.90;99.90;;;;;;4918066;29;20233;-68
2021/12/01 16:54:40;;;;;;;0.50;0.50;;;5.90;99.90;;;;;;4918717;29;20641;-68
2021/12/01 16:57:07;;;;;;;0.50;0.50;;;5.90;99.90;;;;;;4918808;29;20220;-68
2021/12/01 16:59:35;;;;;;;0.60;0.60;;;5.90;99.90;;;;;;4918779;29;20205;-68
2021/12/01 17:02:02;;;;;;;0.50;0.50;;;5.90;99.90;;;;;;4918361;29;20232;-68
2021/12/01 17:04:32;;;;;;;0.60;0.60;;;5.90;99.90;;;;;;4918777;29;20285;-68
2021/12/01 17:07:08;;;;;;;0.50;0.50;;;5.90;99.90;;;;;;4918324;29;20622;-68
2021/12/01 17:09:35;;;;;;;1.33;0.73;;;5.90;99.90;;;;;;4918661;29;20295;-68
2021/12/01 17:12:02;;;;;;;0.73;0.73;;;5.90;99.90;;;;;;4918604;29;20312;-68
2021/12/01 17:14:29;;;;;;;0.63;0.63;;;5.80;99.90;;;;;;4919084;29;20294;-68
2021/12/01 17:16:57;;;;;;;0.73;0.73;;;5.90;99.90;;;;;;4918488;29;20312;-68
2021/12/01 17:19:26;;;;;;;0.70;0.70;;;5.80;99.90;;;;;;4918436;29;20295;-68
2021/12/01 17:21:56;;;;;;;0.50;0.50;;;5.80;99.90;;;;;;4918266;29;20231;-68
2021/12/01 17:24:23;;;;;;;0.65;0.65;;;5.80;99.90;;;;;;4918356;29;20190;-68
2021/12/01 17:26:50;;;;;;;0.70;0.70;;;5.90;99.90;;;;;;4918811;29;20313;-68
2021/12/01 17:29:17;;;;;;;0.55;0.55;;;6.70;99.90;;;;;;4918401;29;20634;-68
2021/12/01 17:31:50;;;;;;;0.70;0.70;;;5.90;99.90;;;;;;4918115;29;20316;-68
2021/12/01 17:34:19;;;;;;;0.70;0.70;;;5.90;99.90;;;;;;4918345;29;20304;-68
2021/12/01 17:36:46;;;;;;;0.82;0.82;;;5.90;99.90;;;;;;4917813;29;20704;-68
2021/12/01 17:39:13;;;;;;;0.80;0.80;;;5.90;99.90;;;;;;4918105;29;20288;-68
2021/12/01 17:41:43;;;;;;;0.90;0.90;;;5.80;99.90;;;;;;4918013;29;20233;-68
2021/12/01 17:44:10;;;;;;;0.77;0.60;;;5.90;99.90;;;;;;4918073;29;20292;-68
2021/12/01 17:46:38;;;;;;;0.60;0.60;;;5.80;99.90;;;;;;4917755;29;20201;-68
2021/12/01 17:49:05;;;;;;;0.60;0.60;;;5.80;99.90;;;;;;4918251;29;20233;-68
2021/12/01 17:51:33;;;;;;;0.70;0.70;;;5.80;99.90;;;;;;4918115;29;20332;-68
2021/12/01 17:54:00;;;;;;;0.55;0.55;;;5.80;99.90;;;;;;4917901;29;20383;-67
2021/12/01 17:56:27;;;;;;;0.68;0.68;;;5.80;99.90;;;;;;4917549;29;20655;-67
2021/12/01 17:58:54;;;;;;;1.95;0.77;;;5.70;99.90;;;;;;4918203;29;20295;-67
2021/12/01 18:01:21;;;;;;;0.88;0.88;;;5.70;99.90;;;;;;4917814;29;20311;-67
2021/12/01 18:03:49;;;;;;;0.60;0.60;;;5.70;99.90;;;;;;4917478;29;20248;-66
2021/12/01 18:06:17;;;;;;;0.60;0.60;;;5.70;99.90;;;;;;4917833;29;20281;-66
2021/12/01 18:08:45;;;;;;;0.50;0.50;;;5.70;99.90;;;;;;4917942;29;20229;-66
2021/12/01 18:11:13;;;;;;;0.63;0.63;;;5.60;99.90;;;;;;4917510;29;20265;-67
2021/12/01 18:13:40;;;;;;;0.50;0.50;;;6.30;99.90;;;;;;4917231;29;20684;-66
2021/12/01 18:16:07;;;;;;;0.60;0.60;;;5.60;99.90;;;;;;4917582;29;20269;-66
2021/12/01 18:18:34;;;;;;;0.70;0.70;;;5.60;99.90;;;;;;4917734;29;20558;-66
2021/12/01 18:21:01;;;;;;;2.92;0.52;;;5.50;99.90;;;;;;4917168;29;20706;-67
2021/12/01 18:23:27;;;;;;;0.60;0.60;;;5.50;99.90;;;;;;4917150;29;20629;-66
2021/12/01 18:25:56;;;;;;;0.55;0.55;;;5.50;99.90;;;;;;4917141;29;20300;-66
2021/12/01 18:28:23;;;;;;;0.47;0.47;;;5.50;99.90;;;;;;4917366;29;20265;-66
2021/12/01 18:30:50;;;;;;;0.50;0.50;;;5.50;99.90;;;;;;4916960;29;20700;-66
2021/12/01 18:33:17;;;;;;;0.52;0.52;;;5.40;99.90;;;;;;4917122;29;20303;-66
2021/12/01 18:35:44;;;;;;;0.52;0.52;;;5.40;99.90;;;;;;4917192;29;20308;-66
2021/12/01 18:38:11;;;;;;;0.60;0.60;;;5.30;99.90;;;;;;4917194;29;20206;-67
2021/12/01 18:40:39;;;;;;;0.50;0.50;;;5.40;99.90;;;;;;4917223;29;20292;-67
2021/12/01 18:43:07;;;;;;;0.60;0.60;;;5.30;99.90;;;;;;4917222;29;20320;-67
2021/12/01 18:45:35;;;;;;;0.65;0.65;;;5.30;99.90;;;;;;4916912;29;20748;-66
2021/12/01 18:48:03;;;;;;;1.33;0.70;;;5.30;99.90;;;;;;4917187;29;20209;-67
2021/12/01 18:50:31;;;;;;;0.52;0.52;;;5.40;99.90;;;;;;4916780;29;20644;-66
2021/12/01 18:52:58;;;;;;;0.50;0.50;;;5.40;99.90;;;;;;4916996;29;20228;-66
2021/12/01 18:55:25;;;;;;;0.45;0.45;;;5.40;99.90;;;;;;4916628;29;20748;-67
2021/12/01 18:57:53;;;;;;;0.60;0.60;;;5.40;99.90;;;;;;4916974;29;20297;-67
2021/12/01 19:00:23;;;;;;;0.60;0.60;;;5.40;99.90;;;;;;4917056;29;20296;-67
2021/12/01 19:02:50;;;;;;;0.60;0.60;;;5.30;99.90;;;;;;4917128;29;20263;-67
2021/12/01 19:05:18;;;;;;;0.52;0.52;;;5.30;99.90;;;;;;4917312;29;20292;-67
2021/12/01 19:07:46;;;;;;;0.60;0.60;;;5.30;99.90;;;;;;4916921;29;20305;-67
2021/12/01 19:10:17;;;;;;;0.60;0.60;;;5.30;99.90;;;;;;4917190;29;20300;-67
2021/12/01 19:12:44;;;;;;;0.60;0.60;;;5.40;99.90;;;;;;4917169;29;20229;-68
2021/12/01 19:15:12;;;;;;;0.65;0.65;;;5.40;99.90;;;;;;4917411;29;20543;-68
2021/12/01 19:17:40;;;;;;;1.35;0.80;;;5.40;99.90;;;;;;4921003;29;20264;-68
2021/12/01 19:20:09;;;;;;;0.70;0.70;;;5.40;99.90;;;;;;4920743;29;20292;-68
2021/12/01 19:22:36;;;;;;;0.60;0.60;;;5.40;99.90;;;;;;4920881;29;20221;-68
2021/12/01 19:25:04;;;;;;;0.70;0.70;;;5.40;99.90;;;;;;4921014;29;20292;-69
2021/12/01 19:27:31;;;;;;;0.60;0.60;;;5.50;99.90;;;;;;4920335;29;20689;-68
2021/12/01 19:29:59;;;;;;;1.05;1.02;;;5.50;99.90;;;;;;4920446;29;20685;-68
2021/12/01 19:32:26;;;;;;;0.70;0.70;;;5.50;99.90;;;;;;4920544;29;20320;-68
2021/12/01 19:34:54;;;;;;;0.70;0.70;;;5.50;99.90;;;;;;4920318;29;20716;-68
2021/12/01 19:37:21;;;;;;;0.75;0.75;;;5.50;99.90;;;;;;4920448;29;20241;-68
2021/12/01 19:39:48;;;;;;;0.60;0.60;;;5.40;99.90;;;;;;4920961;29;20236;-68
2021/12/01 19:42:15;;;;;;;0.68;0.68;;;5.40;99.90;;;;;;4920360;29;20766;-68
2021/12/01 19:44:43;;;;;;;0.70;0.70;;;5.30;99.90;;;;;;4920434;29;20211;-68
2021/12/01 19:47:10;;;;;;;0.73;0.73;;;5.30;99.90;;;;;;4920009;29;20617;-67
2021/12/01 19:49:37;;;;;;;0.70;0.70;;;5.30;99.90;;;;;;4920383;29;20300;-67
2021/12/01 19:52:06;;;;;;;0.65;0.65;;;5.20;99.90;;;;;;4920354;29;20316;-68
2021/12/01 19:54:33;;;;;;;0.70;0.70;;;5.30;99.90;;;;;;4920226;29;20284;-68
2021/12/01 19:57:00;;;;;;;1.00;0.90;;;5.20;99.90;;;;;;4919795;29;20663;-68
2021/12/01 19:59:27;;;;;;;0.60;0.60;;;5.20;99.90;;;;;;4920338;29;20296;-68
2021/12/01 20:01:54;;;;;;;0.70;0.70;;;5.20;99.90;;;;;;4919947;29;20225;-68
2021/12/01 20:04:21;;;;;;;0.70;0.70;;;5.20;99.90;;;;;;4919772;29;20756;-68
2021/12/01 20:06:50;;;;;;;0.50;0.50;;;5.20;99.90;;;;;;4919702;29;20240;-68
2021/12/01 20:09:20;;;;;;;0.52;0.52;;;5.20;99.90;;;;;;4919802;29;20205;-68
2021/12/01 20:11:47;;;;;;;0.40;0.40;;;5.20;99.90;;;;;;4920239;29;20320;-68
2021/12/01 20:14:14;;;;;;;0.50;0.50;;;5.20;99.90;;;;;;4919800;29;20296;-68
2021/12/01 20:16:42;;;;;;;0.65;0.65;;;5.20;99.90;;;;;;4919383;29;20806;-68
2021/12/01 20:19:09;;;;;;;0.50;0.50;;;5.20;99.90;;;;;;4919434;29;20208;-68
2021/12/01 20:21:37;;;;;;;0.60;0.60;;;5.20;99.90;;;;;;4919832;29;20233;-69
2021/12/01 20:24:05;;;;;;;0.40;0.40;;;5.30;99.90;;;;;;4919320;29;20205;-69
2021/12/01 20:26:34;;;;;;;0.70;0.70;;;5.20;99.90;;;;;;4919009;29;20217;-69
2021/12/01 20:29:04;;;;;;;0.80;0.80;;;5.20;99.90;;;;;;4918517;29;20744;-70
2021/12/01 20:31:34;;;;;;;0.68;0.68;;;5.20;99.90;;;;;;4919014;29;20795;-69
2021/12/01 20:34:03;;;;;;;0.60;0.60;;;5.20;99.90;;;;;;4919089;29;20389;-69
2021/12/01 20:36:29;;;;;;;0.50;0.50;;;5.20;99.90;;;;;;4918976;29;20231;-69
2021/12/01 20:39:01;;;;;;;0.50;0.50;;;5.10;99.90;;;;;;4919435;29;20301;-69
2021/12/01 20:41:31;;;;;;;0.50;0.50;;;5.10;99.90;;;;;;4919221;29;20225;-69
2021/12/01 20:43:59;;;;;;;0.68;0.68;;;5.10;99.90;;;;;;4919511;29;20602;-68
2021/12/01 20:46:33;;;;;;;0.60;0.60;;;5.10;99.90;;;;;;4919152;29;20296;-69
2021/12/01 20:54:40;;;;;;;0.60;0.60;;;5.10;99.90;;;;;;4919457;29;20677;-68
2021/12/01 20:57:11;;;;;;;0.55;0.55;;;5.10;99.90;;;;;;4918821;29;20209;-68
2021/12/01 20:59:57;;;;;;;0.65;0.65;;;5.10;99.90;;;;;;4919690;29;20197;-68
2021/12/01 21:02:25;;;;;;;0.80;0.80;;;5.00;99.90;;;;;;4918825;29;20226;-68
2021/12/01 21:04:54;;;;;;;0.70;0.70;;;5.00;99.90;;;;;;4918790;29;20300;-68
2021/12/01 21:07:21;;;;;;;1.17;0.75;;;4.90;99.90;;;;;;4918805;29;20288;-68
2021/12/01 21:09:52;;;;;;;0.60;0.60;;;5.00;99.90;;;;;;4918386;29;20213;-68
2021/12/01 21:12:21;;;;;;;0.60;0.60;;;5.00;99.90;;;;;;4918379;29;20640;-68
2021/12/01 21:14:50;;;;;;;0.70;0.70;;;5.00;99.90;;;;;;4918383;29;20573;-68
2021/12/01 21:17:17;;;;;;;0.50;0.50;;;5.00;99.90;;;;;;4918769;29;20316;-68
2021/12/01 21:19:44;;;;;;;0.50;0.50;;;5.00;99.90;;;;;;4918776;29;20228;-68
2021/12/01 21:22:14;;;;;;;0.57;0.57;;;5.00;99.90;;;;;;4918625;29;20317;-68
2021/12/01 21:24:45;;;;;;;0.70;0.70;;;5.00;99.90;;;;;;4919570;29;20228;-68
2021/12/01 21:27:14;;;;;;;0.40;0.40;;;4.90;99.90;;;;;;4918666;29;20568;-68
2021/12/01 21:29:44;;;;;;;0.60;0.60;;;5.00;99.90;;;;;;4918181;29;20296;-68
2021/12/01 21:32:13;;;;;;;0.60;0.60;;;5.00;99.90;;;;;;4918389;29;20301;-68
2021/12/01 21:34:42;;;;;;;0.50;0.50;;;4.90;99.90;;;;;;4918067;29;20662;-68
2021/12/01 21:37:10;;;;;;;0.50;0.50;;;4.90;99.90;;;;;;4918191;29;20229;-67
2021/12/01 21:39:39;;;;;;;0.40;0.40;;;4.90;99.90;;;;;;4917651;29;20256;-67
2021/12/01 21:42:07;;;;;;;0.40;0.40;;;4.90;99.90;;;;;;4917931;29;20225;-68
2021/12/01 21:44:34;;;;;;;0.47;0.47;;;4.90;99.90;;;;;;4918332;29;20300;-68
2021/12/01 21:47:01;;;;;;;0.50;0.50;;;4.90;99.90;;;;;;4918533;29;20296;-69
2021/12/01 21:49:29;;;;;;;0.40;0.40;;;4.90;99.90;;;;;;4918302;29;20251;-68
2021/12/01 21:51:58;;;;;;;0.60;0.60;;;4.90;99.90;;;;;;4917852;29;20227;-68
2021/12/01 21:54:31;;;;;;;0.40;0.40;;;4.90;99.90;;;;;;4918329;29;20208;-69
2021/12/01 21:56:59;;;;;;;0.45;0.45;;;4.90;99.90;;;;;;4917969;29;20300;-69
2021/12/01 21:59:30;;;;;;;0.52;0.52;;;4.90;99.90;;;;;;4918712;29;20210;-69
2021/12/01 22:01:58;;;;;;;0.50;0.50;;;4.90;99.90;;;;;;4917918;29;20311;-70
2021/12/01 22:04:27;;;;;;;0.50;0.50;;;4.90;99.90;;;;;;4940079;23;20316;-69
2021/12/01 22:06:55;;;;;;;0.55;0.55;;;4.80;99.90;;;;;;4917864;29;20197;-69
2021/12/01 22:09:23;;;;;;;0.60;0.60;;;4.80;99.90;;;;;;4918020;29;20635;-69
2021/12/01 22:11:51;;;;;;;0.60;0.60;;;4.70;99.90;;;;;;4917926;29;20205;-70
2021/12/01 22:14:18;;;;;;;0.40;0.40;;;4.70;99.90;;;;;;4917468;29;20221;-70
2021/12/01 22:16:47;;;;;;;0.50;0.50;;;4.60;99.90;;;;;;4917784;29;20625;-71
2021/12/01 22:19:14;;;;;;;0.40;0.40;;;4.50;99.90;;;;;;4917544;29;20308;-71
2021/12/01 22:21:45;;;;;;;0.50;0.50;;;4.50;99.90;;;;;;4917447;29;20209;-71
2021/12/01 22:24:16;;;;;;;0.50;0.50;;;4.40;99.90;;;;;;4917387;29;20256;-72
2021/12/01 22:26:45;;;;;;;0.40;0.40;;;4.30;99.90;;;;;;4917527;29;20241;-70
2021/12/01 22:29:14;;;;;;;0.60;0.60;;;4.20;99.90;;;;;;4917406;29;20764;-70
2021/12/01 22:31:43;;;;;;;0.55;0.55;;;4.10;99.90;;;;;;4917841;29;20205;-70
2021/12/01 22:34:12;;;;;;;0.50;0.50;;;4.10;99.90;;;;;;4917271;29;20748;-70
2021/12/01 22:36:41;;;;;;;0.50;0.50;;;4.00;99.90;;;;;;4917457;29;20210;-70
2021/12/01 22:39:10;;;;;;;0.50;0.50;;;4.00;99.90;;;;;;4917446;29;20303;-70
2021/12/01 22:41:41;;;;;;;0.40;0.40;;;3.90;99.90;;;;;;4917114;29;20212;-70
